Pagrindinis puslapis
METAR-TAF:

METAR-TAF

Oro uostai :

Amanas, Jordanija

platuma: 31-59N, ilguma: 035-59E, Aukštis: 767 m

Dabartinis oras

Ataskaita buvo paskelbta 29 minutes, ne 03:00 UTC
Vėjas 13 kt iš Vakarų/Šiaurės Vakarų
Temperatūra 14°C
Drėgmė 72%
Slėgis 1017 hPa
Matomumas 10 km arba daugiau
Su prošvaistėmis ne aukštis 2000 ft

METAR: OJAM 290300Z 30013KT 9999 BKN020 14/09 Q1017 NOSIG

Laikas: 06:29 (03:29 UTC)

Prognozė

Ataskaita buvo paskelbta 4 valandos ir 29 minutes, ne 23:00 UTC
Prognozė galioja nuo 29 metu 00 UTC su 30 metu 06 UTC
Vėjas 10 kt iš Vakarų/Šiaurės Vakarų
Matomumas: 6000 m
Mažai debesys ne aukštis 2500 ft
Tikimybė 30% :
Laikinai
nuo 29 metu 02 UTC su 29 metu 05 UTC
Matomumas: 3000 m
rūkana

TAF: OJAM 282300Z 2900/3006 29010KT 6000 FEW025 PROB30 TEMPO 2902/2905 3000 BR

Orai ataskaitas ir orų prognozės (METAR, TAF).

turimą stotys yra geltonos ir raudonos taškus žemėlapyje.

Perkelti pele per norėdami pamatyti stoties vardą.

Tada spustelėkite, norėdami matyti oro stebėjimo ir prognozės.

Norėdami pakeisti žemėlapį: spustelėkite ant žalios mygtukų su juodo kryžiaus žemyn,; žalią mygtuką su brūkšneliu, jei norite nutolinti; arba žalių rodyklių gretimoms žemėlapius.


METAR-TAF: